Time,TemperatureF,DewpointF,PressureIn,WindDirection,WindDirectionDegrees,WindSpeedMPH,WindSpeedGustMPH,Humidity,HourlyPrecipIn,Conditions,Clouds,dailyrainin,SolarRadiationWatts/m^2,SoftwareType,DateUTC
2014-01-20 00:02:00,33.0,23.0,-100.00,ENE,62,5.0,16.0,65,0.00,,,0.00,0.000000,,2014-01-20 05:02:00,
2014-01-20 00:11:00,34.0,23.0,-100.00,ENE,68,5.0,16.0,64,0.00,,,0.00,0.000000,,2014-01-20 05:11:00,
2014-01-20 00:42:00,34.0,23.0,-100.00,ENE,68,5.0,16.0,64,0.00,,,0.00,0.000000,,2014-01-20 05:42:00,
2014-01-20 00:52:00,34.0,23.0,-100.00,ENE,68,5.0,16.0,64,0.00,,,0.00,0.000000,,2014-01-20 05:52:00,
2014-01-20 01:02:00,34.0,23.0,-100.00,ENE,68,5.0,16.0,64,0.00,,,0.00,0.000000,,2014-01-20 06:02:00,
2014-01-20 01:11:00,35.0,22.0,-100.00,ENE,67,6.0,14.0,58,0.00,,,0.00,0.000000,,2014-01-20 06:11:00,
2014-01-20 01:42:00,35.0,22.0,-100.00,ENE,67,6.0,14.0,58,0.00,,,0.00,0.000000,,2014-01-20 06:42:00,
2014-01-20 01:52:00,35.0,22.0,-100.00,ENE,67,6.0,14.0,58,0.00,,,0.00,0.000000,,2014-01-20 06:52:00,
2014-01-20 02:01:00,35.0,22.0,-100.00,ENE,67,6.0,14.0,58,0.00,,,0.00,0.000000,,2014-01-20 07:01:00,
2014-01-20 02:11:00,34.0,20.0,-100.00,East,85,4.0,15.0,56,0.00,,,0.00,0.000000,,2014-01-20 07:11:00,
2014-01-20 02:42:00,34.0,20.0,-100.00,East,85,4.0,15.0,56,0.00,,,0.00,0.000000,,2014-01-20 07:42:00,
2014-01-20 02:52:00,34.0,20.0,-100.00,East,85,4.0,15.0,56,0.00,,,0.00,0.000000,,2014-01-20 07:52:00,
2014-01-20 03:02:00,34.0,20.0,-100.00,East,85,4.0,15.0,56,0.00,,,0.00,0.000000,,2014-01-20 08:02:00,
2014-01-20 03:11:00,33.0,20.0,-100.00,ENE,67,6.0,15.0,59,0.00,,,0.00,0.000000,,2014-01-20 08:11:00,
2014-01-20 03:42:00,33.0,20.0,-100.00,ENE,67,6.0,15.0,59,0.00,,,0.00,0.000000,,2014-01-20 08:42:00,
2014-01-20 03:52:00,33.0,20.0,-100.00,ENE,67,6.0,15.0,59,0.00,,,0.00,0.000000,,2014-01-20 08:52:00,
2014-01-20 04:02:00,33.0,20.0,-100.00,ENE,67,6.0,15.0,59,0.00,,,0.00,0.000000,,2014-01-20 09:02:00,
2014-01-20 04:11:00,32.0,20.0,-100.00,ENE,76,6.0,13.0,62,0.00,,,0.00,0.000000,,2014-01-20 09:11:00,
2014-01-20 04:43:00,32.0,20.0,-100.00,ENE,76,6.0,13.0,62,0.00,,,0.00,0.000000,,2014-01-20 09:43:00,
2014-01-20 04:53:00,32.0,20.0,-100.00,ENE,76,6.0,13.0,62,0.00,,,0.00,0.000000,,2014-01-20 09:53:00,
2014-01-20 05:03:00,32.0,20.0,-100.00,ENE,76,6.0,13.0,62,0.00,,,0.00,0.000000,,2014-01-20 10:03:00,
2014-01-20 05:11:00,32.0,21.0,-100.00,East,88,5.0,15.0,63,0.00,,,0.00,0.000000,,2014-01-20 10:11:00,
2014-01-20 05:42:00,32.0,21.0,-100.00,East,88,5.0,15.0,63,0.00,,,0.00,0.000000,,2014-01-20 10:42:00,
2014-01-20 05:53:00,32.0,21.0,-100.00,East,88,5.0,15.0,63,0.00,,,0.00,0.000000,,2014-01-20 10:53:00,
2014-01-20 06:02:00,32.0,21.0,-100.00,East,88,5.0,15.0,63,0.00,,,0.00,0.000000,,2014-01-20 11:02:00,
2014-01-20 06:11:00,31.0,20.0,-100.00,East,93,3.0,13.0,62,0.00,,,0.00,0.000000,,2014-01-20 11:11:00,
2014-01-20 06:42:00,31.0,20.0,-100.00,East,93,3.0,13.0,62,0.00,,,0.00,0.000000,,2014-01-20 11:42:00,
2014-01-20 06:53:00,31.0,20.0,-100.00,East,93,3.0,13.0,62,0.00,,,0.00,0.000000,,2014-01-20 11:53:00,
2014-01-20 07:02:00,31.0,20.0,-100.00,East,93,3.0,13.0,62,0.00,,,0.00,0.000000,,2014-01-20 12:02:00,
2014-01-20 07:11:00,31.0,21.0,-100.00,NE,52,3.0,9.0,66,0.00,,,0.00,0.000000,,2014-01-20 12:11:00,
2014-01-20 07:42:00,31.0,21.0,-100.00,NE,52,3.0,9.0,66,0.00,,,0.00,0.000000,,2014-01-20 12:42:00,
2014-01-20 07:52:00,31.0,21.0,-100.00,NE,52,3.0,9.0,66,0.00,,,0.00,0.000000,,2014-01-20 12:52:00,
2014-01-20 08:02:00,31.0,21.0,-100.00,NE,52,3.0,9.0,66,0.00,,,0.00,0.000000,,2014-01-20 13:02:00,
2014-01-20 08:11:00,32.0,21.0,-100.00,ENE,58,4.0,10.0,64,0.00,,,0.00,11.000000,,2014-01-20 13:11:00,
2014-01-20 08:42:00,32.0,21.0,-100.00,ENE,58,4.0,10.0,64,0.00,,,0.00,11.000000,,2014-01-20 13:42:00,
2014-01-20 08:52:00,32.0,21.0,-100.00,ENE,58,4.0,10.0,64,0.00,,,0.00,11.000000,,2014-01-20 13:52:00,
2014-01-20 09:02:00,32.0,21.0,-100.00,ENE,58,4.0,10.0,64,0.00,,,0.00,11.000000,,2014-01-20 14:02:00,
2014-01-20 09:11:00,36.0,22.0,-100.00,NE,51,6.0,13.0,56,0.00,,,0.00,189.000000,,2014-01-20 14:11:00,
2014-01-20 09:42:00,36.0,22.0,-100.00,NE,51,6.0,13.0,56,0.00,,,0.00,189.000000,,2014-01-20 14:42:00,
2014-01-20 09:52:00,36.0,22.0,-100.00,NE,51,6.0,13.0,56,0.00,,,0.00,189.000000,,2014-01-20 14:52:00,
2014-01-20 10:01:00,36.0,22.0,-100.00,NE,51,6.0,13.0,56,0.00,,,0.00,189.000000,,2014-01-20 15:01:00,
2014-01-20 10:11:00,40.0,24.0,-100.00,NE,42,4.0,12.0,52,0.00,,,0.00,396.000000,,2014-01-20 15:11:00,
2014-01-20 10:43:00,40.0,24.0,-100.00,NE,42,4.0,12.0,52,0.00,,,0.00,396.000000,,2014-01-20 15:43:00,
2014-01-20 10:53:00,40.0,24.0,-100.00,NE,42,4.0,12.0,52,0.00,,,0.00,396.000000,,2014-01-20 15:53:00,
2014-01-20 11:03:00,40.0,24.0,-100.00,NE,42,4.0,12.0,52,0.00,,,0.00,396.000000,,2014-01-20 16:03:00,
2014-01-20 11:11:00,43.0,24.0,-100.00,NE,47,4.0,9.0,47,0.00,,,0.00,541.000000,,2014-01-20 16:11:00,
2014-01-20 11:42:00,43.0,24.0,-100.00,NE,47,4.0,9.0,47,0.00,,,0.00,541.000000,,2014-01-20 16:42:00,
2014-01-20 11:52:00,43.0,24.0,-100.00,NE,47,4.0,9.0,47,0.00,,,0.00,541.000000,,2014-01-20 16:52:00,
2014-01-20 12:02:00,43.0,24.0,-100.00,NE,47,4.0,9.0,47,0.00,,,0.00,541.000000,,2014-01-20 17:02:00,
2014-01-20 12:11:00,47.0,25.0,-100.00,ENE,62,5.0,12.0,42,0.00,,,0.00,651.000000,,2014-01-20 17:11:00,
2014-01-20 12:42:00,47.0,25.0,-100.00,ENE,62,5.0,12.0,42,0.00,,,0.00,651.000000,,2014-01-20 17:42:00,
2014-01-20 12:53:00,47.0,25.0,-100.00,ENE,62,5.0,12.0,42,0.00,,,0.00,651.000000,,2014-01-20 17:53:00,
2014-01-20 13:02:00,47.0,25.0,-100.00,ENE,62,5.0,12.0,42,0.00,,,0.00,651.000000,,2014-01-20 18:02:00,
2014-01-20 13:11:00,48.0,25.0,-100.00,NE,54,5.0,11.0,40,0.00,,,0.00,703.000000,,2014-01-20 18:11:00,
2014-01-20 13:42:00,48.0,25.0,-100.00,NE,54,5.0,11.0,40,0.00,,,0.00,703.000000,,2014-01-20 18:42:00,
2014-01-20 13:52:00,48.0,25.0,-100.00,NE,54,5.0,11.0,40,0.00,,,0.00,703.000000,,2014-01-20 18:52:00,
2014-01-20 14:02:00,48.0,25.0,-100.00,NE,54,5.0,11.0,40,0.00,,,0.00,703.000000,,2014-01-20 19:02:00,
2014-01-20 14:11:00,50.0,25.0,-100.00,NE,50,4.0,11.0,37,0.00,,,0.00,666.000000,,2014-01-20 19:11:00,
2014-01-20 14:42:00,50.0,25.0,-100.00,NE,50,4.0,11.0,37,0.00,,,0.00,666.000000,,2014-01-20 19:42:00,
2014-01-20 14:52:00,50.0,25.0,-100.00,NE,50,4.0,11.0,37,0.00,,,0.00,666.000000,,2014-01-20 19:52:00,
2014-01-20 15:02:00,50.0,25.0,-100.00,NE,50,4.0,11.0,37,0.00,,,0.00,666.000000,,2014-01-20 20:02:00,
2014-01-20 15:11:00,50.0,24.0,-100.00,NE,47,5.0,10.0,36,0.00,,,0.00,430.000000,,2014-01-20 20:11:00,
2014-01-20 15:42:00,50.0,24.0,-100.00,NE,47,5.0,10.0,36,0.00,,,0.00,430.000000,,2014-01-20 20:42:00,
2014-01-20 15:53:00,50.0,24.0,-100.00,NE,47,5.0,10.0,36,0.00,,,0.00,430.000000,,2014-01-20 20:53:00,
2014-01-20 16:02:00,50.0,24.0,-100.00,NE,47,5.0,10.0,36,0.00,,,0.00,430.000000,,2014-01-20 21:02:00,
2014-01-20 16:11:00,48.0,23.0,-100.00,ENE,57,4.0,9.0,37,0.00,,,0.00,176.000000,,2014-01-20 21:11:00,
2014-01-20 16:43:00,48.0,23.0,-100.00,ENE,57,4.0,9.0,37,0.00,,,0.00,176.000000,,2014-01-20 21:43:00,
2014-01-20 16:54:00,48.0,23.0,-100.00,ENE,57,4.0,9.0,37,0.00,,,0.00,176.000000,,2014-01-20 21:54:00,
2014-01-20 17:04:00,48.0,23.0,-100.00,ENE,57,4.0,9.0,37,0.00,,,0.00,176.000000,,2014-01-20 22:04:00,
2014-01-20 17:11:00,47.0,23.0,-100.00,NE,53,3.0,6.0,39,0.00,,,0.00,25.000000,,2014-01-20 22:11:00,
2014-01-20 17:43:00,47.0,23.0,-100.00,NE,53,3.0,6.0,39,0.00,,,0.00,25.000000,,2014-01-20 22:43:00,
2014-01-20 17:53:00,47.0,23.0,-100.00,NE,53,3.0,6.0,39,0.00,,,0.00,25.000000,,2014-01-20 22:53:00,
2014-01-20 18:02:00,47.0,23.0,-100.00,NE,53,3.0,6.0,39,0.00,,,0.00,25.000000,,2014-01-20 23:02:00,
2014-01-20 18:11:00,44.0,23.0,-100.00,ENE,73,2.0,6.0,43,0.00,,,0.00,6.000000,,2014-01-20 23:11:00,
2014-01-20 18:42:00,44.0,23.0,-100.00,ENE,73,2.0,6.0,43,0.00,,,0.00,6.000000,,2014-01-20 23:42:00,
2014-01-20 18:53:00,44.0,23.0,-100.00,ENE,73,2.0,6.0,43,0.00,,,0.00,6.000000,,2014-01-20 23:53:00,
2014-01-20 19:02:00,44.0,23.0,-100.00,ENE,73,2.0,6.0,43,0.00,,,0.00,6.000000,,2014-01-21 00:02:00,
2014-01-20 19:11:00,38.0,21.0,-100.00,NW,310,1.0,3.0,49,0.00,,,0.00,0.000000,,2014-01-21 00:11:00,
2014-01-20 19:42:00,38.0,21.0,-100.00,NW,310,1.0,3.0,49,0.00,,,0.00,0.000000,,2014-01-21 00:42:00,
2014-01-20 19:52:00,38.0,21.0,-100.00,NW,310,1.0,3.0,49,0.00,,,0.00,0.000000,,2014-01-21 00:52:00,
2014-01-20 20:02:00,38.0,21.0,-100.00,NW,310,1.0,3.0,49,0.00,,,0.00,0.000000,,2014-01-21 01:02:00,
2014-01-20 20:11:00,36.0,23.0,-100.00,NW,309,1.0,3.0,59,0.00,,,0.00,0.000000,,2014-01-21 01:11:00,
2014-01-20 20:42:00,36.0,23.0,-100.00,NW,309,1.0,3.0,59,0.00,,,0.00,0.000000,,2014-01-21 01:42:00,
2014-01-20 20:52:00,36.0,23.0,-100.00,NW,309,1.0,3.0,59,0.00,,,0.00,0.000000,,2014-01-21 01:52:00,
2014-01-20 21:01:00,36.0,23.0,-100.00,NW,309,1.0,3.0,59,0.00,,,0.00,0.000000,,2014-01-21 02:01:00,
2014-01-20 21:11:00,33.0,23.0,-100.00,NNW,342,2.0,3.0,67,0.00,,,0.00,0.000000,,2014-01-21 02:11:00,
2014-01-20 21:42:00,33.0,23.0,-100.00,NNW,342,2.0,3.0,67,0.00,,,0.00,0.000000,,2014-01-21 02:42:00,
2014-01-20 21:52:00,33.0,23.0,-100.00,NNW,342,2.0,3.0,67,0.00,,,0.00,0.000000,,2014-01-21 02:52:00,
2014-01-20 22:02:00,33.0,23.0,-100.00,NNW,342,2.0,3.0,67,0.00,,,0.00,0.000000,,2014-01-21 03:02:00,
2014-01-20 22:11:00,32.0,24.0,-100.00,NNW,331,2.0,3.0,72,0.00,,,0.00,0.000000,,2014-01-21 03:11:00,
2014-01-20 22:43:00,32.0,24.0,-100.00,NNW,331,2.0,3.0,72,0.00,,,0.00,0.000000,,2014-01-21 03:43:00,
2014-01-20 22:53:00,32.0,24.0,-100.00,NNW,331,2.0,3.0,72,0.00,,,0.00,0.000000,,2014-01-21 03:53:00,
2014-01-20 23:04:00,32.0,24.0,-100.00,NNW,331,2.0,3.0,72,0.00,,,0.00,0.000000,,2014-01-21 04:04:00,
2014-01-20 23:11:00,32.0,23.0,-100.00,WNW,302,1.0,3.0,70,0.00,,,0.00,0.000000,,2014-01-21 04:11:00,
2014-01-20 23:43:00,32.0,23.0,-100.00,WNW,302,1.0,3.0,70,0.00,,,0.00,0.000000,,2014-01-21 04:43:00,
2014-01-20 23:53:00,32.0,23.0,-100.00,WNW,302,1.0,3.0,70,0.00,,,0.00,0.000000,,2014-01-21 04:53:00,